Time;durP1;ratioP1;P1;durP2;ratioP2;P2;SDS_P1;SDS_P2;PMS_P1;PMS_P2;Temp;Humidity;BMP_temperature;BMP_pressure;BME280_temperature;BME280_humidity;BME280_pressure;Samples;Min_cycle;Max_cycle;Signal;HPM_P1;HPM_P2
2024/03/05 00:01:37;;;;;;;101.93;34.33;;;;;;;5.95;100.00;98040.75;6103397;19;20032;-72
2024/03/05 00:03:38;;;;;;;84.45;31.20;;;;;;;5.93;100.00;98034.03;6110028;19;19998;-72
2024/03/05 00:05:38;;;;;;;87.57;30.98;;;;;;;5.90;100.00;98039.09;6111360;19;20011;-72
2024/03/05 00:07:39;;;;;;;82.20;30.35;;;;;;;5.86;100.00;98018.97;6111702;19;20002;-72
2024/03/05 00:09:40;;;;;;;85.50;32.25;;;;;;;5.88;100.00;98027.66;6111817;19;20015;-72
2024/03/05 00:11:41;;;;;;;96.72;32.90;;;;;;;5.88;100.00;98043.34;6109312;19;20013;-71
2024/03/05 00:13:41;;;;;;;84.47;30.55;;;;;;;5.85;100.00;98031.09;6112230;19;20003;-71
2024/03/05 00:15:42;;;;;;;91.88;34.80;;;;;;;5.85;100.00;98036.59;6111354;19;20003;-71
2024/03/05 00:17:43;;;;;;;87.32;32.75;;;;;;;5.82;100.00;98031.81;6112061;19;20383;-71
2024/03/05 00:19:43;;;;;;;82.53;30.63;;;;;;;5.85;100.00;98038.53;6112671;19;20010;-71
2024/03/05 00:21:43;;;;;;;86.80;31.35;;;;;;;5.83;100.00;98036.16;6110509;19;20066;-71
2024/03/05 00:23:44;;;;;;;79.72;29.13;;;;;;;5.81;100.00;98038.47;6111835;19;20016;-71
2024/03/05 00:25:44;;;;;;;73.32;29.83;;;;;;;5.83;100.00;98033.41;6112395;19;20094;-71
2024/03/05 00:27:44;;;;;;;82.32;30.35;;;;;;;5.81;100.00;98043.16;6111993;19;20006;-71
2024/03/05 00:29:45;;;;;;;88.65;30.92;;;;;;;5.82;100.00;98036.53;6112169;19;20077;-71
2024/03/05 00:31:45;;;;;;;84.43;32.10;;;;;;;5.80;100.00;98036.88;6109647;19;20103;-71
2024/03/05 00:33:46;;;;;;;83.00;31.48;;;;;;;5.80;100.00;98044.34;6111324;19;20312;-72
2024/03/05 00:35:47;;;;;;;79.50;27.70;;;;;;;5.79;100.00;98040.78;6109390;19;20475;-72
2024/03/05 00:37:47;;;;;;;75.22;30.02;;;;;;;5.77;100.00;98039.53;6111739;19;20006;-72
2024/03/05 00:39:47;;;;;;;69.32;28.58;;;;;;;5.73;100.00;98041.41;6110660;19;20007;-72
2024/03/05 00:41:48;;;;;;;91.22;31.00;;;;;;;5.74;100.00;98051.25;6109241;19;20007;-72
2024/03/05 00:43:48;;;;;;;87.88;31.30;;;;;;;5.78;100.00;98052.09;6110248;19;20042;-72
2024/03/05 00:45:49;;;;;;;75.57;28.73;;;;;;;5.79;100.00;98048.19;6110366;19;19999;-72
2024/03/05 00:47:49;;;;;;;81.10;31.42;;;;;;;5.78;100.00;98046.63;6110266;19;20002;-72
2024/03/05 00:49:49;;;;;;;70.40;28.17;;;;;;;5.75;100.00;98045.38;6109712;19;20062;-72
2024/03/05 00:51:50;;;;;;;76.32;27.23;;;;;;;5.74;100.00;98043.00;6109362;19;20010;-72
2024/03/05 00:53:51;;;;;;;73.00;28.33;;;;;;;5.75;100.00;98050.09;6110251;19;20114;-71
2024/03/05 00:55:51;;;;;;;73.22;28.83;;;;;;;5.73;100.00;98046.91;6109782;19;20463;-71
2024/03/05 00:57:52;;;;;;;79.28;30.58;;;;;;;5.76;100.00;98046.19;6110859;19;20006;-71
2024/03/05 00:59:55;;;;;;;69.18;28.30;;;;;;;5.74;100.00;98043.00;6110195;19;20006;-71
2024/03/05 01:01:55;;;;;;;71.30;27.50;;;;;;;5.75;100.00;98050.09;6108035;19;20002;-71
2024/03/05 01:03:56;;;;;;;66.18;26.88;;;;;;;5.73;100.00;98047.69;6109334;19;20024;-71
2024/03/05 01:05:57;;;;;;;69.82;26.83;;;;;;;5.74;100.00;98048.50;6110366;19;20013;-71
2024/03/05 01:07:58;;;;;;;71.68;26.05;;;;;;;5.75;100.00;98052.81;6110394;19;20010;-72
2024/03/05 01:09:58;;;;;;;77.00;28.48;;;;;;;5.73;100.00;98033.19;6110774;19;20033;-72
2024/03/05 01:11:59;;;;;;;79.57;29.15;;;;;;;5.70;100.00;98033.88;6106733;19;20029;-72
2024/03/05 01:14:00;;;;;;;83.22;29.10;;;;;;;5.73;100.00;98033.19;6098258;19;20006;-72
2024/03/05 01:16:00;;;;;;;80.50;29.80;;;;;;;5.73;100.00;98033.19;6106767;19;20006;-72
2024/03/05 01:18:01;;;;;;;83.53;30.00;;;;;;;5.72;100.00;98029.66;6110050;19;20391;-72
2024/03/05 01:20:03;;;;;;;77.47;28.75;;;;;;;5.72;100.00;98028.84;6109109;19;20010;-72
2024/03/05 01:22:03;;;;;;;86.32;29.27;;;;;;;5.72;100.00;98026.91;6106904;19;20010;-72
2024/03/05 01:24:04;;;;;;;79.35;29.15;;;;;;;5.72;100.00;98026.91;6109222;19;20016;-72
2024/03/05 01:26:05;;;;;;;77.85;27.88;;;;;;;5.72;100.00;98026.09;6109434;19;20007;-72
2024/03/05 01:28:07;;;;;;;77.05;27.15;;;;;;;5.71;100.00;98024.47;6106995;19;20503;-72
2024/03/05 01:30:11;;;;;;;74.40;28.00;;;;;;;5.72;100.00;98020.63;6107825;19;20006;-72
2024/03/05 01:32:12;;;;;;;70.65;27.45;;;;;;;5.71;100.00;98025.31;6108658;19;20364;-72
2024/03/05 01:34:13;;;;;;;74.15;27.60;;;;;;;5.73;100.00;98028.47;6109468;19;20007;-72
2024/03/05 01:36:15;;;;;;;69.82;25.77;;;;;;;5.72;100.00;98021.41;6110788;19;20642;-72
2024/03/05 01:38:15;;;;;;;62.63;24.98;;;;;;;5.70;100.00;98015.47;6110773;19;20040;-72
2024/03/05 01:40:17;;;;;;;80.93;29.00;;;;;;;5.69;100.00;98021.31;6109678;19;20015;-72
2024/03/05 01:42:17;;;;;;;68.28;27.05;;;;;;;5.69;100.00;98021.31;6105330;19;20499;-72
2024/03/05 01:44:21;;;;;;;79.30;28.73;;;;;;;5.70;100.00;98025.63;6110036;19;20006;-72
2024/03/05 01:46:25;;;;;;;94.45;31.80;;;;;;;5.68;100.00;98020.50;6109853;19;20017;-72
2024/03/05 01:48:27;;;;;;;83.00;30.45;;;;;;;5.69;100.00;98027.59;6108288;19;20007;-72
2024/03/05 01:50:28;;;;;;;80.63;29.08;;;;;;;5.68;100.00;98022.47;6108166;19;20335;-72
2024/03/05 01:52:30;;;;;;;86.57;30.88;;;;;;;5.68;100.00;98027.94;6109127;19;20007;-71
2024/03/05 01:54:32;;;;;;;93.53;31.48;;;;;;;5.68;100.00;98025.22;6110835;19;20336;-71
2024/03/05 01:56:32;;;;;;;89.18;31.30;;;;;;;5.65;100.00;98023.97;6108565;19;22183;-71
2024/03/05 01:58:34;;;;;;;90.28;30.65;;;;;;;5.66;100.00;98028.31;6108800;19;20003;-71
2024/03/05 02:00:37;;;;;;;75.57;27.92;;;;;;;5.66;100.00;98027.53;6107445;19;20013;-71
2024/03/05 02:02:38;;;;;;;88.60;29.58;;;;;;;5.69;100.00;98037.78;6109550;19;20066;-71
2024/03/05 02:04:39;;;;;;;81.07;27.15;;;;;;;5.67;100.00;98020.88;6109421;19;20009;-71
2024/03/05 02:06:41;;;;;;;93.80;30.80;;;;;;;5.68;100.00;98033.44;6109401;19;20020;-72
2024/03/05 02:08:42;;;;;;;89.95;30.33;;;;;;;5.66;100.00;98028.31;6108770;19;20003;-72
2024/03/05 02:10:42;;;;;;;79.88;29.42;;;;;;;5.67;100.00;98031.84;6107057;19;20044;-72
2024/03/05 02:12:43;;;;;;;78.75;28.73;;;;;;;5.65;100.00;98026.72;6108624;19;20022;-72
2024/03/05 02:14:43;;;;;;;81.32;29.55;;;;;;;5.68;100.00;98031.50;6097861;19;19999;-71
2024/03/05 02:16:45;;;;;;;108.53;30.60;;;;;;;5.67;100.00;98029.09;6093986;19;20009;-71
2024/03/05 02:18:46;;;;;;;74.57;29.05;;;;;;;5.64;100.00;98025.94;6094036;19;19998;-71
2024/03/05 02:20:46;;;;;;;86.53;30.45;;;;;;;5.66;100.00;98025.56;6093129;19;20321;-71
2024/03/05 02:22:46;;;;;;;93.85;31.40;;;;;;;5.67;100.00;98037.34;6093890;19;20005;-71
2024/03/05 02:24:47;;;;;;;75.78;25.98;;;;;;;5.66;100.00;98030.25;6094488;19;20003;-71
2024/03/05 02:26:47;;;;;;;83.63;28.75;;;;;;;5.66;100.00;98025.56;6091788;19;20451;-71
2024/03/05 02:28:48;;;;;;;80.60;28.20;;;;;;;5.69;100.00;98030.34;6093684;19;19999;-71
2024/03/05 02:30:49;;;;;;;77.22;29.63;;;;;;;5.71;100.00;98033.53;6093545;19;20520;-71
2024/03/05 02:32:50;;;;;;;78.38;26.25;;;;;;;5.71;100.00;98030.78;6093176;19;20266;-71
2024/03/05 02:34:54;;;;;;;90.55;30.00;;;;;;;5.70;100.00;98029.19;6094246;19;20357;-71
2024/03/05 02:36:54;;;;;;;78.53;28.27;;;;;;;5.72;100.00;98031.59;6092632;19;20010;-71
2024/03/05 02:38:54;;;;;;;75.43;28.00;;;;;;;5.71;100.00;98030.78;6094473;19;20467;-72
2024/03/05 02:40:55;;;;;;;74.70;27.67;;;;;;;5.70;100.00;98023.69;6091692;19;19995;-72
2024/03/05 02:42:55;;;;;;;84.13;28.45;;;;;;;5.71;100.00;98024.47;6092852;19;20373;-72
2024/03/05 02:44:55;;;;;;;82.15;27.40;;;;;;;5.75;100.00;98033.63;6093702;19;20455;-72
2024/03/05 02:46:56;;;;;;;82.82;31.02;;;;;;;5.74;100.00;98034.78;6093617;19;20003;-72
2024/03/05 02:48:56;;;;;;;71.00;26.60;;;;;;;5.74;100.00;98029.28;6093100;19;20008;-71
2024/03/05 02:50:57;;;;;;;86.75;28.90;;;;;;;5.74;100.00;98024.59;6092318;19;20486;-71
2024/03/05 02:52:57;;;;;;;94.43;30.65;;;;;;;5.74;100.00;98027.31;6093320;19;20455;-71
2024/03/05 02:54:58;;;;;;;80.75;28.15;;;;;;;5.73;100.00;98023.00;6093400;19;20003;-71
2024/03/05 02:56:58;;;;;;;94.28;29.10;;;;;;;5.73;100.00;98036.72;6092176;19;20085;-71
2024/03/05 02:58:58;;;;;;;89.60;30.70;;;;;;;5.74;100.00;98026.53;6095317;19;20011;-71
2024/03/05 03:00:58;;;;;;;79.15;27.25;;;;;;;5.73;100.00;98033.19;6092180;19;20369;-71
2024/03/05 03:02:59;;;;;;;76.45;30.10;;;;;;;5.73;100.00;98030.44;6093234;19;20043;-71
2024/03/05 03:05:00;;;;;;;82.10;28.63;;;;;;;5.73;100.00;98033.97;6094062;19;20021;-71
2024/03/05 03:07:00;;;;;;;83.85;30.60;;;;;;;5.73;100.00;98033.97;6093059;19;20386;-71
2024/03/05 03:09:00;;;;;;;97.93;31.85;;;;;;;5.76;100.00;98035.19;6092711;19;20010;-72
2024/03/05 03:11:01;;;;;;;80.03;28.38;;;;;;;5.76;100.00;98041.47;6092359;19;19998;-72
2024/03/05 03:13:02;;;;;;;76.95;28.45;;;;;;;5.76;100.00;98032.47;6092486;19;20005;-72
2024/03/05 03:15:02;;;;;;;94.32;30.05;;;;;;;5.77;100.00;98045.81;6102122;19;20375;-71
2024/03/05 03:17:03;;;;;;;84.63;29.70;;;;;;;5.76;100.00;98033.25;6107111;19;20062;-71
2024/03/05 03:19:04;;;;;;;92.43;29.27;;;;;;;5.76;100.00;98038.75;6107533;19;20077;-72
2024/03/05 03:21:04;;;;;;;81.57;31.48;;;;;;;5.76;100.00;98029.72;6105866;19;20009;-72
2024/03/05 03:23:05;;;;;;;77.75;29.02;;;;;;;5.78;100.00;98050.16;6106706;19;20042;-72
2024/03/05 03:25:05;;;;;;;77.03;27.38;;;;;;;5.77;100.00;98048.56;6107924;19;20009;-72
2024/03/05 03:27:06;;;;;;;88.60;30.70;;;;;;;5.77;100.00;98037.59;6105954;19;20007;-72
2024/03/05 03:29:11;;;;;;;87.80;30.30;;;;;;;5.79;100.00;98053.69;6107373;19;19999;-72
2024/03/05 03:31:11;;;;;;;95.78;32.63;;;;;;;5.78;100.00;98050.16;6106125;19;20006;-71
2024/03/05 03:33:11;;;;;;;89.80;30.10;;;;;;;5.75;100.00;98047.34;6106987;19;20012;-71
2024/03/05 03:35:13;;;;;;;82.53;28.42;;;;;;;5.75;100.00;98045.38;6106432;19;20006;-71
2024/03/05 03:37:14;;;;;;;86.30;29.65;;;;;;;5.78;100.00;98038.38;6108143;19;19998;-71
2024/03/05 03:39:23;;;;;;;87.85;30.75;;;;;;;5.78;100.00;98046.63;6111309;19;20070;-71
2024/03/05 03:41:24;;;;;;;96.50;29.35;;;;;;;5.76;100.00;98049.72;6110451;19;20384;-71
2024/03/05 03:43:25;;;;;;;99.25;30.33;;;;;;;5.77;100.00;98042.28;6113438;19;20041;-71
2024/03/05 03:45:25;;;;;;;81.75;30.05;;;;;;;5.80;100.00;98044.34;6112067;19;20009;-71
2024/03/05 03:47:26;;;;;;;80.15;27.73;;;;;;;5.77;100.00;98045.81;6112889;19;20007;-71
2024/03/05 03:49:26;;;;;;;86.97;29.83;;;;;;;5.78;100.00;98047.41;6112803;19;20011;-71
2024/03/05 03:51:26;;;;;;;84.40;30.35;;;;;;;5.81;100.00;98041.22;6111547;19;20062;-71
2024/03/05 03:53:27;;;;;;;91.20;29.75;;;;;;;5.81;100.00;98043.16;6112235;19;20007;-71
2024/03/05 03:55:27;;;;;;;102.72;30.92;;;;;;;5.79;100.00;98043.53;6111584;19;20018;-71
2024/03/05 03:57:28;;;;;;;98.03;31.98;;;;;;;5.78;100.00;98038.38;6112946;19;20042;-71
2024/03/05 03:59:28;;;;;;;89.72;31.98;;;;;;;5.78;100.00;98044.66;6112166;19;20449;-71
2024/03/05 04:01:31;;;;;;;93.95;30.25;;;;;;;5.79;100.00;98035.31;6110440;19;20007;-71
2024/03/05 04:03:31;;;;;;;;;;;;;;;5.81;100.00;98040.44;6113874;19;20458;-71
2024/03/05 04:05:32;;;;;;;89.57;30.70;;;;;;;5.81;100.00;98043.16;6111860;19;19922;-71
2024/03/05 04:07:32;;;;;;;85.57;29.30;;;;;;;5.78;100.00;98035.63;6112495;19;20430;-71
2024/03/05 04:09:32;;;;;;;89.25;29.88;;;;;;;5.80;100.00;98036.09;6111392;19;20361;-71
2024/03/05 04:11:33;;;;;;;97.32;32.50;;;;;;;5.78;100.00;98035.63;6110969;19;20352;-71
2024/03/05 04:13:33;;;;;;;87.57;32.33;;;;;;;5.77;100.00;98036.78;6111150;19;20009;-71
2024/03/05 04:15:33;;;;;;;97.20;30.60;;;;;;;5.75;100.00;98041.84;6109920;19;20005;-72
2024/03/05 04:17:36;;;;;;;66.38;27.42;;;;;;;5.72;100.00;98039.81;6113086;19;20295;-72
2024/03/05 04:19:36;;;;;;;79.50;29.33;;;;;;;5.73;100.00;98044.16;6112336;19;20480;-71
2024/03/05 04:21:44;;;;;;;82.15;28.83;;;;;;;5.73;100.00;98044.16;6110295;19;20006;-72
2024/03/05 04:23:44;;;;;;;77.15;28.40;;;;;;;5.73;100.00;98036.72;6111265;19;20019;-71
2024/03/05 04:25:47;;;;;;;73.78;29.13;;;;;;;5.73;100.00;98050.44;6111511;19;20003;-71
2024/03/05 04:27:47;;;;;;;78.97;32.17;;;;;;;5.72;100.00;98045.31;6110776;19;19998;-71
2024/03/05 04:29:53;;;;;;;73.18;27.80;;;;;;;5.68;100.00;98047.97;6110438;19;20002;-71
2024/03/05 04:32:14;;;;;;;63.33;24.77;;;;;;;5.69;100.00;98046.81;6107003;19;20084;-71
2024/03/05 04:34:18;;;;;;;67.13;26.55;;;;;;;5.71;100.00;98046.44;6002117;19;2005926;-71
2024/03/05 04:36:20;;;;;;;68.25;27.42;;;;;;;5.69;100.00;98055.03;6110277;19;20021;-71
2024/03/05 04:38:21;;;;;;;64.43;27.20;;;;;;;5.68;100.00;98047.97;6111732;19;20321;-71
2024/03/05 04:40:21;;;;;;;75.18;28.45;;;;;;;5.66;100.00;98050.28;6111161;19;20932;-71
2024/03/05 04:42:24;;;;;;;62.47;28.60;;;;;;;5.66;100.00;98053.00;6110655;19;20081;-71
2024/03/05 04:44:26;;;;;;;73.18;28.60;;;;;;;5.65;100.00;98051.44;6111470;19;21154;-71
2024/03/05 04:46:26;;;;;;;75.90;28.52;;;;;;;5.66;100.00;98054.97;6112312;19;20006;-71
2024/03/05 04:48:26;;;;;;;64.55;27.48;;;;;;;5.66;100.00;98052.22;6109128;19;20006;-71
2024/03/05 04:50:27;;;;;;;72.35;28.63;;;;;;;5.64;100.00;98050.63;6108887;19;20003;-71
2024/03/05 04:52:27;;;;;;;63.75;26.40;;;;;;;5.62;100.00;98052.13;6110935;19;20372;-71
2024/03/05 04:54:29;;;;;;;69.38;27.17;;;;;;;5.61;100.00;98054.06;6110226;19;20518;-71
2024/03/05 04:56:29;;;;;;;80.88;30.33;;;;;;;5.57;100.00;98055.16;6111153;19;20471;-71
2024/03/05 04:58:30;;;;;;;64.25;27.45;;;;;;;5.59;100.00;98050.88;6111656;19;20007;-71
2024/03/05 05:00:30;;;;;;;72.53;28.13;;;;;;;5.58;100.00;98060.28;6109042;19;20010;-71
2024/03/05 05:02:31;;;;;;;65.88;28.13;;;;;;;5.58;100.00;98063.03;6110760;19;20116;-71
2024/03/05 05:04:37;;;;;;;74.20;29.20;;;;;;;5.57;100.00;98058.69;6111101;19;20006;-71
2024/03/05 05:06:37;;;;;;;74.70;31.33;;;;;;;5.58;100.00;98059.47;6112386;19;20018;-71
2024/03/05 05:08:38;;;;;;;74.18;29.50;;;;;;;5.61;100.00;98070.53;6111006;19;20082;-71
2024/03/05 05:10:38;;;;;;;74.63;28.85;;;;;;;5.59;100.00;98063.81;6110025;19;20014;-72
2024/03/05 05:12:39;;;;;;;72.80;28.38;;;;;;;5.58;100.00;98064.97;6110648;19;20107;-71
2024/03/05 05:14:39;;;;;;;70.70;27.90;;;;;;;5.53;100.00;98066.03;6111143;19;20002;-71
2024/03/05 05:16:40;;;;;;;64.80;27.50;;;;;;;5.56;100.00;98073.56;6108967;19;20102;-72
2024/03/05 05:18:40;;;;;;;68.18;26.77;;;;;;;5.57;100.00;98068.88;6110310;19;20010;-71
2024/03/05 05:20:41;;;;;;;68.35;25.55;;;;;;;5.56;100.00;98076.31;6109551;19;20415;-71
2024/03/05 05:22:42;;;;;;;69.80;27.52;;;;;;;5.51;100.00;98073.81;6110781;19;20013;-71
2024/03/05 05:24:42;;;;;;;70.70;28.00;;;;;;;5.55;100.00;98082.94;6110540;19;20433;-71
2024/03/05 05:26:43;;;;;;;68.72;27.02;;;;;;;5.52;100.00;98064.44;6110727;19;20006;-71
2024/03/05 05:28:43;;;;;;;66.22;27.83;;;;;;;5.53;100.00;98062.47;6110250;19;19998;-71
2024/03/05 05:30:43;;;;;;;74.88;27.08;;;;;;;5.50;100.00;98071.44;6109030;19;19999;-71
2024/03/05 05:32:46;;;;;;;67.78;25.30;;;;;;;5.48;100.00;98066.31;6110301;19;20070;-72
2024/03/05 05:34:46;;;;;;;66.82;27.08;;;;;;;5.47;100.00;98075.69;6109732;19;20002;-71
2024/03/05 05:36:47;;;;;;;67.40;25.88;;;;;;;5.46;100.00;98073.28;6105264;19;20017;-71
2024/03/05 05:38:48;;;;;;;64.95;26.38;;;;;;;5.43;100.00;98068.50;6109618;19;20491;-71
2024/03/05 05:40:49;;;;;;;58.10;24.40;;;;;;;5.46;100.00;98068.63;6105976;19;20021;-71
2024/03/05 05:42:50;;;;;;;67.93;27.33;;;;;;;5.40;100.00;98070.03;6101821;19;20062;-71
2024/03/05 05:44:52;;;;;;;57.67;25.38;;;;;;;5.39;100.00;98065.69;6108071;19;20071;-71
2024/03/05 05:46:52;;;;;;;62.38;26.10;;;;;;;5.36;100.00;98056.19;6109035;19;20006;-71
2024/03/05 05:48:54;;;;;;;58.38;24.98;;;;;;;5.41;100.00;98068.88;6108586;19;20502;-71
2024/03/05 05:50:57;;;;;;;57.72;25.20;;;;;;;5.38;100.00;98066.84;6108219;19;20007;-71
2024/03/05 05:52:57;;;;;;;59.67;24.98;;;;;;;5.38;100.00;98064.09;6108573;19;19998;-71
2024/03/05 05:54:58;;;;;;;60.80;25.25;;;;;;;5.39;100.00;98062.16;6106246;19;20019;-71
2024/03/05 05:57:00;;;;;;;63.22;24.42;;;;;;;5.38;100.00;98064.09;6109248;19;20342;-71
2024/03/05 05:59:05;;;;;;;60.97;24.50;;;;;;;5.36;100.00;98067.19;6106267;19;20005;-71
2024/03/05 06:01:05;;;;;;;65.50;24.23;;;;;;;5.38;100.00;98066.84;6107575;19;20031;-71
2024/03/05 06:03:09;;;;;;;57.22;24.45;;;;;;;5.34;100.00;98069.47;6107240;19;20007;-71
2024/03/05 06:05:09;;;;;;;59.90;24.30;;;;;;;5.36;100.00;98077.34;6108097;19;20034;-71
2024/03/05 06:07:11;;;;;;;61.72;25.17;;;;;;;5.36;100.00;98063.63;6108039;19;20109;-71
2024/03/05 06:09:11;;;;;;;63.30;26.42;;;;;;;5.34;100.00;98064.00;6108624;19;20533;-72
2024/03/05 06:11:12;;;;;;;60.65;23.77;;;;;;;5.34;100.00;98066.75;6106674;19;20006;-71
2024/03/05 06:13:13;;;;;;;59.58;23.92;;;;;;;5.35;100.00;98076.56;6106863;19;20407;-71
2024/03/05 06:15:13;;;;;;;59.10;24.85;;;;;;;5.38;100.00;98086.06;6099356;19;20034;-71
2024/03/05 06:17:14;;;;;;;51.03;20.55;;;;;;;5.39;100.00;98081.34;6109585;19;20013;-71
2024/03/05 06:19:14;;;;;;;60.63;24.60;;;;;;;5.35;100.00;98076.56;6109896;19;20018;-71
2024/03/05 06:21:15;;;;;;;63.85;26.20;;;;;;;5.37;100.00;98078.94;6106112;19;19994;-71
2024/03/05 06:23:16;;;;;;;66.53;27.50;;;;;;;5.40;100.00;98086.50;6107709;19;20003;-71
2024/03/05 06:25:18;;;;;;;63.78;25.90;;;;;;;5.44;100.00;98081.88;6109164;19;20003;-71
2024/03/05 06:27:18;;;;;;;58.63;24.20;;;;;;;5.43;100.00;98077.53;6109875;19;20006;-71
2024/03/05 06:29:19;;;;;;;61.97;24.92;;;;;;;5.46;100.00;98084.25;6109996;19;20039;-71
2024/03/05 06:31:19;;;;;;;61.10;26.60;;;;;;;5.49;100.00;98086.31;6105185;19;20059;-71
2024/03/05 06:33:19;;;;;;;55.90;23.45;;;;;;;5.49;100.00;98100.03;6107237;19;20293;-71
2024/03/05 06:35:25;;;;;;;59.45;24.85;;;;;;;5.50;100.00;98099.66;6108670;19;20010;-71
2024/03/05 06:37:25;;;;;;;55.92;23.73;;;;;;;5.52;100.00;98086.38;6106367;19;20389;-71
2024/03/05 06:39:29;;;;;;;50.03;22.42;;;;;;;5.52;100.00;98083.66;6107161;19;20051;-72
2024/03/05 06:41:30;;;;;;;54.20;23.83;;;;;;;5.54;100.00;98086.81;6105717;19;20006;-72
2024/03/05 06:43:36;;;;;;;65.63;26.73;;;;;;;5.55;100.00;98091.19;6105656;19;20030;-72
2024/03/05 06:45:36;;;;;;;69.18;26.17;;;;;;;5.57;100.00;98090.81;6107026;19;20007;-71
2024/03/05 06:47:39;;;;;;;62.10;25.20;;;;;;;5.57;100.00;98088.88;6107387;19;20045;-71
2024/03/05 06:49:40;;;;;;;55.10;24.60;;;;;;;5.60;100.00;98096.38;6106739;19;20490;-71
2024/03/05 06:51:55;;;;;;;60.28;24.42;;;;;;;5.62;100.00;98085.06;6105846;19;20003;-71
2024/03/05 06:58:39;;;;;;;55.67;23.58;;;;;;;5.72;100.00;98091.97;6107035;19;20030;-71
2024/03/05 07:00:39;;;;;;;49.83;23.05;;;;;;;5.78;100.00;98085.03;6108603;19;20015;-71
2024/03/05 07:02:39;;;;;;;60.05;25.98;;;;;;;5.79;100.00;98084.72;6108929;19;20017;-71
2024/03/05 07:04:40;;;;;;;62.35;27.30;;;;;;;5.81;100.00;98092.59;6108681;19;20014;-71
2024/03/05 07:06:40;;;;;;;76.63;34.78;;;;;;;5.84;100.00;98097.34;6108089;19;20010;-71
2024/03/05 07:08:42;;;;;;;72.57;31.45;;;;;;;5.85;100.00;98086.00;6109071;19;20002;-71
2024/03/05 07:10:43;;;;;;;71.15;30.10;;;;;;;5.86;100.00;98090.34;6107279;19;20003;-71
2024/03/05 07:12:44;;;;;;;69.90;29.67;;;;;;;5.87;100.00;98089.19;6106782;19;20225;-72
2024/03/05 07:14:45;;;;;;;63.22;28.08;;;;;;;5.90;100.00;98090.44;6098387;19;20003;-72
2024/03/05 07:16:46;;;;;;;62.25;27.17;;;;;;;5.91;100.00;98090.13;6094489;19;20002;-71
2024/03/05 07:18:48;;;;;;;60.20;26.00;;;;;;;5.92;100.00;98090.91;6093500;19;20003;-71
2024/03/05 07:20:48;;;;;;;63.25;25.77;;;;;;;5.94;100.00;98088.59;6092245;19;20005;-71
2024/03/05 07:22:51;;;;;;;53.47;23.83;;;;;;;6.00;100.00;98092.66;6093518;19;20006;-71
2024/03/05 07:24:52;;;;;;;55.17;24.92;;;;;;;6.01;100.00;98090.72;6093048;19;19998;-71
2024/03/05 07:26:52;;;;;;;50.17;23.00;;;;;;;6.06;100.00;98096.75;6094828;19;20054;-71
2024/03/05 07:28:53;;;;;;;45.72;21.05;;;;;;;6.09;100.00;98098.75;6093943;19;20006;-71
2024/03/05 07:30:53;;;;;;;48.92;22.42;;;;;;;6.08;100.00;98099.13;6092864;19;19998;-71
2024/03/05 07:32:54;;;;;;;54.17;22.15;;;;;;;6.11;100.00;98099.19;6092976;19;20242;-71
2024/03/05 07:34:54;;;;;;;48.42;20.20;;;;;;;6.12;100.00;98103.56;6092689;19;20700;-71
2024/03/05 07:36:54;;;;;;;53.97;25.58;;;;;;;6.15;100.00;98104.78;6094337;19;19999;-71
2024/03/05 07:38:55;;;;;;;53.08;22.70;;;;;;;6.16;100.00;98101.69;6093036;19;20007;-71
2024/03/05 07:40:55;;;;;;;46.78;21.98;;;;;;;6.19;100.00;98103.69;6091901;19;20016;-71
2024/03/05 07:42:56;;;;;;;55.03;24.17;;;;;;;6.21;100.00;98108.84;6093309;19;20003;-72
2024/03/05 07:44:56;;;;;;;45.65;21.02;;;;;;;6.22;100.00;98107.69;6093084;19;20019;-72
2024/03/05 07:46:56;;;;;;;51.88;21.55;;;;;;;6.22;100.00;98106.91;6092752;19;20682;-72
2024/03/05 07:48:57;;;;;;;50.13;23.05;;;;;;;6.20;100.00;98110.78;6093141;19;20372;-72
2024/03/05 07:50:57;;;;;;;51.05;22.83;;;;;;;6.21;100.00;98111.59;6092062;19;20360;-72
2024/03/05 07:52:58;;;;;;;47.63;21.63;;;;;;;6.24;100.00;98113.63;6090978;19;20017;-72
2024/03/05 07:54:58;;;;;;;45.80;20.67;;;;;;;6.21;100.00;98106.13;6093053;19;20011;-71
2024/03/05 07:56:59;;;;;;;46.33;20.83;;;;;;;6.23;100.00;98111.25;6092675;19;20546;-71
2024/03/05 07:58:59;;;;;;;47.20;21.27;;;;;;;6.26;100.00;98116.81;6092454;19;19999;-71
2024/03/05 08:01:00;;;;;;;46.47;21.23;;;;;;;6.27;100.00;98115.66;6091655;19;20542;-71
2024/03/05 08:03:00;;;;;;;43.45;20.02;;;;;;;6.24;100.00;98113.63;6091685;19;20343;-71
2024/03/05 08:05:01;;;;;;;44.42;21.48;;;;;;;6.25;100.00;98115.22;6092490;19;20007;-71
2024/03/05 08:07:01;;;;;;;50.50;22.15;;;;;;;6.31;100.00;98119.28;6092564;19;20014;-71
2024/03/05 08:09:03;;;;;;;42.22;20.33;;;;;;;6.30;100.00;98119.66;6093022;19;20007;-71
2024/03/05 08:11:03;;;;;;;42.17;20.38;;;;;;;6.26;100.00;98108.56;6091208;19;20461;-71
2024/03/05 08:13:04;;;;;;;42.35;19.13;;;;;;;6.28;100.00;98116.44;6092382;19;20070;-71
2024/03/05 08:15:12;;;;;;;46.03;21.83;;;;;;;6.26;100.00;98116.81;6102726;19;20401;-71
2024/03/05 08:17:12;;;;;;;43.85;20.50;;;;;;;6.23;100.00;98106.53;6107167;19;20010;-71
2024/03/05 08:19:13;;;;;;;46.33;20.92;;;;;;;6.27;100.00;98115.66;6107424;19;20003;-71
2024/03/05 08:21:13;;;;;;;42.10;19.70;;;;;;;6.28;100.00;98122.72;6104311;19;20584;-71
2024/03/05 08:23:13;;;;;;;48.28;23.73;;;;;;;6.27;100.00;98121.13;6107994;19;20007;-71
2024/03/05 08:25:16;;;;;;;45.67;22.42;;;;;;;6.28;100.00;98117.22;6113011;19;20343;-71
2024/03/05 08:27:16;;;;;;;54.10;26.33;;;;;;;6.19;100.00;98122.94;6112911;19;20010;-71
2024/03/05 08:29:18;;;;;;;53.58;24.48;;;;;;;6.20;100.00;98116.28;6112462;19;20086;-71
2024/03/05 08:31:18;;;;;;;50.63;24.58;;;;;;;6.18;100.00;98124.09;6110057;19;20011;-71
2024/03/05 08:33:20;;;;;;;51.88;27.02;;;;;;;6.18;100.00;98126.03;6112678;19;20030;-71
2024/03/05 08:35:22;;;;;;;64.05;30.17;;;;;;;6.14;100.00;98125.19;6112764;19;20010;-71
2024/03/05 08:37:22;;;;;;;73.45;33.85;;;;;;;6.12;100.00;98133.78;6112053;19;20011;-71
2024/03/05 08:39:22;;;;;;;61.55;28.20;;;;;;;6.16;100.00;98131.09;6111258;19;20002;-71
2024/03/05 08:41:23;;;;;;;67.47;28.70;;;;;;;6.10;100.00;98129.78;6111257;19;20007;-71
2024/03/05 08:43:23;;;;;;;75.00;29.85;;;;;;;6.12;100.00;98133.78;6111704;19;20514;-71
2024/03/05 08:45:24;;;;;;;77.75;26.88;;;;;;;6.11;100.00;98129.41;6111426;19;20003;-71
2024/03/05 08:47:24;;;;;;;75.55;28.80;;;;;;;6.12;100.00;98138.44;6112879;19;20011;-71
2024/03/05 08:49:25;;;;;;;76.13;30.55;;;;;;;6.08;100.00;98138.38;6111241;19;20010;-71
2024/03/05 08:51:25;;;;;;;68.22;26.10;;;;;;;6.09;100.00;98142.72;6109943;19;20006;-71
2024/03/05 08:53:26;;;;;;;69.43;27.92;;;;;;;6.04;100.00;98143.00;6111213;19;20489;-71
2024/03/05 08:55:26;;;;;;;75.38;29.08;;;;;;;6.00;100.00;98149.53;6111589;19;20469;-71
2024/03/05 08:57:27;;;;;;;73.93;28.55;;;;;;;5.90;100.00;98142.63;6111617;19;20007;-71
2024/03/05 08:59:27;;;;;;;78.93;30.67;;;;;;;5.93;100.00;98147.41;6111022;19;20007;-71
2024/03/05 09:01:28;;;;;;;79.50;28.55;;;;;;;5.89;100.00;98138.28;6109971;19;20018;-71
2024/03/05 09:03:28;;;;;;;82.72;29.50;;;;;;;5.87;100.00;98143.31;6111505;19;20098;-71
2024/03/05 09:05:28;;;;;;;86.00;28.48;;;;;;;5.87;100.00;98144.09;6111381;19;20012;-71
2024/03/05 09:07:29;;;;;;;89.63;32.35;;;;;;;5.88;100.00;98144.94;6111605;19;20027;-72
2024/03/05 09:09:30;;;;;;;89.80;29.50;;;;;;;5.86;100.00;98147.22;6111456;19;20003;-71
2024/03/05 09:11:31;;;;;;;94.53;29.98;;;;;;;5.89;100.00;98146.53;6109424;19;20010;-71
2024/03/05 09:13:32;;;;;;;85.53;29.38;;;;;;;5.90;100.00;98146.19;6110564;19;20030;-71
2024/03/05 09:15:32;;;;;;;78.38;28.50;;;;;;;5.94;100.00;98142.72;6111573;19;20010;-72
2024/03/05 09:17:33;;;;;;;82.82;29.98;;;;;;;5.95;100.00;98139.63;6111017;19;20007;-72
2024/03/05 09:19:34;;;;;;;75.53;28.08;;;;;;;5.95;100.00;98142.38;6111600;19;20003;-72
2024/03/05 09:21:35;;;;;;;85.13;29.70;;;;;;;5.95;100.00;98147.84;6109867;19;20014;-72